This is the latest recevied weather packets stored in our database for station/object K8DJB-1. If no packets are shown the sender has not sent any weather packets the latest 1 day(s).
| Time | Temp. | Humidity | Pressure | Rain* | Wind** | Luminosity | Snow |
|---|---|---|---|---|---|---|---|
| 1777970294 | 11.11° C | 65% | 1001.3 hPa | 0 mm | 0.89 m/s, 278° | - | - |
| 1777969994 | 11.11° C | 66% | 1001.1 hPa | 0 mm | 0.89 m/s, 266° | - | - |
| 1777969694 | 11.11° C | 67% | 1001 hPa | 0 mm | 0 m/s | - | - |
| 1777969394 | 11.11° C | 67% | 1000.9 hPa | 0 mm | 0.89 m/s, 236° | - | - |
| 1777969094 | 11.11° C | 68% | 1000.7 hPa | 0 mm | 0.89 m/s, 234° | - | - |
| 1777968794 | 11.11° C | 68% | 1000.7 hPa | 0 mm | 0.89 m/s, 231° | - | - |
| 1777968494 | 11.11° C | 68% | 1000.7 hPa | 0 mm | 0.89 m/s, 240° | - | - |
| 1777968194 | 11.67° C | 68% | 1000.7 hPa | 0 mm | 0.89 m/s, 250° | - | - |
| 1777967894 | 11.67° C | 68% | 1000.5 hPa | 0 mm | 0.89 m/s, 246° | - | - |
| 1777967594 | 11.67° C | 69% | 1000.8 hPa | 0 mm | 0.89 m/s, 246° | - | - |
| 1777967294 | 11.67° C | 69% | 1000.6 hPa | 0 mm | 0.45 m/s, 254° | - | - |
| 1777966994 | 11.67° C | 70% | 1000.6 hPa | 0 mm | 1.79 m/s, 227° | - | - |
| 1777966694 | 11.67° C | 70% | 1000.7 hPa | 0 mm | 2.24 m/s, 224° | - | - |
| 1777966394 | 11.67° C | 70% | 1000.6 hPa | 0 mm | 2.24 m/s, 228° | - | - |
| 1777966094 | 11.67° C | 70% | 1000.5 hPa | 0 mm | 1.79 m/s, 223° | - | - |
| 1777965794 | 11.67° C | 72% | 1000.7 hPa | 0 mm | 2.24 m/s, 225° | - | - |
| 1777965494 | 11.67° C | 73% | 1000.8 hPa | 0 mm | 2.68 m/s, 217° | - | - |
| 1777965194 | 11.67° C | 74% | 1000.7 hPa | 0 mm | 2.24 m/s, 213° | - | - |
| 1777964894 | 12.22° C | 74% | 1000.6 hPa | 0 mm | 2.24 m/s, 218° | - | - |
| 1777964682 | 12.22° C | 75% | 1000.5 hPa | 0 mm | 0.89 m/s, 270° | - | - |
| 1777964594 | 12.22° C | 75% | 1000.5 hPa | 0 mm | 0.89 m/s, 270° | - | - |
| 1777964294 | 12.22° C | 76% | 1000.7 hPa | 0 mm | 1.79 m/s, 228° | - | - |
| 1777963963 | 12.22° C | 75% | 1000.1 hPa | 0 mm | 1.34 m/s, 212° | - | - |
| 1777963612 | 12.78° C | 75% | 1000.1 hPa | 0 mm | 1.79 m/s, 252° | - | - |
| 1777963124 | 12.78° C | 75% | 1000.1 hPa | 0 mm | 1.34 m/s, 262° | - | - |
* Rain latest hour (hover to see other rain measurements)
** Current wind speed in m/s (hover to see current wind gust speed)